createdAt,value
2018-06-22T00:00:55.651Z,17.67
2018-06-22T00:03:24.811Z,17.67
2018-06-22T00:05:54.030Z,17.66
2018-06-22T00:08:23.118Z,17.62
2018-06-22T00:10:52.218Z,17.56
2018-06-22T00:13:21.307Z,17.50
2018-06-22T00:15:50.396Z,17.39
2018-06-22T00:18:19.546Z,17.27
2018-06-22T00:20:48.674Z,17.18
2018-06-22T00:23:17.797Z,17.16
2018-06-22T00:25:46.938Z,17.10
2018-06-22T00:28:16.038Z,17.05
2018-06-22T00:30:45.130Z,16.94
2018-06-22T00:33:14.330Z,16.90
2018-06-22T00:35:43.411Z,16.86
2018-06-22T00:38:12.538Z,16.86
2018-06-22T00:40:41.661Z,16.82
2018-06-22T00:43:11.142Z,16.57
2018-06-22T00:45:40.312Z,16.44
2018-06-22T00:48:09.441Z,16.41
2018-06-22T00:50:38.555Z,16.41
2018-06-22T00:54:19.446Z,16.43
2018-06-22T00:56:48.544Z,16.26
2018-06-22T00:59:17.657Z,16.15
2018-06-22T01:01:46.799Z,16.01
2018-06-22T01:04:15.883Z,15.83
2018-06-22T01:06:44.988Z,15.70
2018-06-22T01:09:14.196Z,15.64
2018-06-22T01:11:43.384Z,15.63
2018-06-22T01:14:12.480Z,15.52
2018-06-22T01:16:41.613Z,15.42
2018-06-22T01:19:11.565Z,15.36
2018-06-22T01:21:40.748Z,15.36
2018-06-22T01:24:09.883Z,15.29
2018-06-22T01:26:39.001Z,15.23
2018-06-22T01:29:13.503Z,15.16
2018-06-22T01:31:42.602Z,15.10
2018-06-22T01:34:11.696Z,15.04
2018-06-22T01:36:40.805Z,15.02
2018-06-22T01:39:09.993Z,14.85
2018-06-22T01:41:39.088Z,14.72
2018-06-22T01:44:08.196Z,14.60
2018-06-22T01:46:37.270Z,14.54
2018-06-22T01:49:06.524Z,14.47
2018-06-22T01:51:35.633Z,14.43
2018-06-22T01:54:04.796Z,14.44
2018-06-22T01:56:33.882Z,14.45
2018-06-22T01:59:02.990Z,14.43
2018-06-22T02:01:32.149Z,14.42
2018-06-22T02:04:01.233Z,14.39
2018-06-22T02:06:30.395Z,14.29
2018-06-22T02:08:59.485Z,14.25
2018-06-22T02:11:28.586Z,14.13
2018-06-22T02:13:57.705Z,14.12
2018-06-22T02:16:26.799Z,14.10
2018-06-22T02:18:55.897Z,14.01
2018-06-22T02:21:25.024Z,13.95
2018-06-22T02:23:54.160Z,13.90
2018-06-22T02:26:23.239Z,13.87
2018-06-22T02:28:52.363Z,13.91
2018-06-22T02:31:21.477Z,13.92
2018-06-22T02:33:50.653Z,13.94
2018-06-22T02:36:19.783Z,13.88
2018-06-22T02:38:48.902Z,13.91
2018-06-22T02:41:18.025Z,13.91
2018-06-22T02:43:47.133Z,13.93
2018-06-22T02:46:16.219Z,13.93
2018-06-22T02:48:45.361Z,13.92
2018-06-22T02:51:14.770Z,13.87
2018-06-22T02:53:45.453Z,13.84
2018-06-22T02:56:14.561Z,13.82
2018-06-22T02:58:43.697Z,13.82
2018-06-22T03:01:12.782Z,13.81
2018-06-22T03:03:41.894Z,13.83
2018-06-22T03:06:11.016Z,13.83
2018-06-22T03:08:40.157Z,13.83
2018-06-22T03:11:09.337Z,13.85
2018-06-22T03:13:38.458Z,13.85
2018-06-22T03:16:08.974Z,13.84
2018-06-22T03:18:38.071Z,13.82
2018-06-22T03:21:07.361Z,13.82
2018-06-22T03:23:36.467Z,13.81
2018-06-22T03:26:05.757Z,13.84
2018-06-22T03:28:34.952Z,13.84
2018-06-22T03:31:04.060Z,13.81
2018-06-22T03:33:33.280Z,13.85
2018-06-22T03:36:02.413Z,13.85
2018-06-22T03:38:31.521Z,13.86
2018-06-22T03:41:01.478Z,13.79
2018-06-22T03:43:30.579Z,13.82
2018-06-22T03:45:59.703Z,13.78
2018-06-22T03:48:28.783Z,13.82
2018-06-22T03:50:57.909Z,13.82
2018-06-22T03:53:27.006Z,13.85
2018-06-22T03:55:56.138Z,13.88
2018-06-22T03:58:25.279Z,13.90
2018-06-22T04:00:54.375Z,13.87
2018-06-22T04:03:23.477Z,13.89
2018-06-22T04:05:52.589Z,13.88
2018-06-22T04:08:21.665Z,13.88
2018-06-22T04:10:50.825Z,13.88
2018-06-22T04:13:19.960Z,13.90
2018-06-22T04:15:49.057Z,13.91
2018-06-22T04:18:18.149Z,13.92
2018-06-22T04:20:47.260Z,13.94
2018-06-22T04:23:16.350Z,13.95
2018-06-22T04:25:45.473Z,13.96
2018-06-22T04:28:14.584Z,13.99
2018-06-22T04:30:43.705Z,14.01
2018-06-22T04:33:12.809Z,14.05
2018-06-22T04:35:41.921Z,13.99
2018-06-22T04:38:11.215Z,14.00
2018-06-22T04:40:40.320Z,14.03
2018-06-22T04:43:09.439Z,14.01
2018-06-22T04:45:38.553Z,14.03
2018-06-22T04:48:07.717Z,14.04
2018-06-22T04:50:36.850Z,14.07
2018-06-22T04:53:06.103Z,14.10
2018-06-22T04:55:35.214Z,14.11
2018-06-22T04:58:04.634Z,14.15
2018-06-22T05:00:33.795Z,14.14
2018-06-22T05:03:02.913Z,14.12
2018-06-22T05:05:32.041Z,14.16
2018-06-22T05:08:01.169Z,14.19
2018-06-22T05:10:30.310Z,14.13
2018-06-22T05:12:59.510Z,14.17
2018-06-22T05:15:28.650Z,14.20
2018-06-22T05:17:57.790Z,14.24
2018-06-22T05:20:27.813Z,14.25
2018-06-22T05:22:57.018Z,14.24
2018-06-22T05:25:26.178Z,14.24
2018-06-22T05:27:55.330Z,14.25
2018-06-22T05:30:24.591Z,14.29
2018-06-22T05:32:53.685Z,14.33
2018-06-22T05:35:22.900Z,14.38
2018-06-22T05:37:52.026Z,14.41
2018-06-22T05:40:21.230Z,14.42
2018-06-22T05:42:50.378Z,14.48
2018-06-22T05:45:19.929Z,14.56
2018-06-22T05:47:49.195Z,14.73
2018-06-22T05:50:18.373Z,14.93
2018-06-22T05:52:47.528Z,15.04
2018-06-22T05:55:16.766Z,15.05
2018-06-22T05:57:45.907Z,15.10
2018-06-22T06:00:15.084Z,15.13
2018-06-22T06:02:44.261Z,15.15
2018-06-22T06:05:13.410Z,15.15
2018-06-22T06:07:42.568Z,15.20
2018-06-22T06:10:11.729Z,15.23
2018-06-22T06:12:40.870Z,15.30
2018-06-22T06:15:09.992Z,15.37
2018-06-22T06:17:39.113Z,15.41
2018-06-22T06:20:09.494Z,15.48
2018-06-22T06:22:38.658Z,15.51
2018-06-22T06:25:07.988Z,15.48
2018-06-22T06:27:37.789Z,15.51
2018-06-22T06:30:07.266Z,15.53
2018-06-22T06:32:36.422Z,15.62
2018-06-22T06:35:05.678Z,15.78
2018-06-22T06:37:34.793Z,15.89
2018-06-22T06:40:03.979Z,15.99
2018-06-22T06:42:33.102Z,16.06
2018-06-22T06:45:02.202Z,16.09
2018-06-22T06:47:31.331Z,16.16
2018-06-22T06:50:00.453Z,16.34
2018-06-22T06:52:29.590Z,16.38
2018-06-22T06:54:58.774Z,16.36
2018-06-22T06:57:28.251Z,16.32
2018-06-22T06:59:57.352Z,16.34
2018-06-22T07:02:26.512Z,16.24
2018-06-22T07:04:55.681Z,16.20
2018-06-22T07:07:24.784Z,16.26
2018-06-22T07:09:53.882Z,16.38
2018-06-22T07:12:22.966Z,16.46
2018-06-22T07:14:52.055Z,16.53
2018-06-22T07:17:21.114Z,16.62
2018-06-22T07:19:50.241Z,16.72
2018-06-22T07:22:19.374Z,16.84
2018-06-22T07:24:48.505Z,17.04
2018-06-22T07:27:17.654Z,16.96
2018-06-22T07:29:46.751Z,16.70
2018-06-22T07:32:15.858Z,16.49
2018-06-22T07:34:44.967Z,16.39
2018-06-22T07:37:14.060Z,16.29
2018-06-22T07:39:43.138Z,16.22
2018-06-22T07:42:12.283Z,16.23
2018-06-22T07:44:41.363Z,16.34
2018-06-22T07:47:11.398Z,16.45
2018-06-22T07:49:40.556Z,16.55
2018-06-22T07:52:09.639Z,16.54
2018-06-22T07:54:38.709Z,16.64
2018-06-22T07:57:08.089Z,16.88
2018-06-22T07:59:37.186Z,17.17
2018-06-22T08:02:06.348Z,17.52
2018-06-22T08:04:35.490Z,17.72
2018-06-22T08:07:04.598Z,17.66
2018-06-22T08:09:33.737Z,17.48
2018-06-22T08:12:02.928Z,17.28
2018-06-22T08:14:32.032Z,17.19
2018-06-22T08:17:01.150Z,17.38
2018-06-22T08:19:30.681Z,17.81
2018-06-22T08:21:59.789Z,18.08
2018-06-22T08:24:28.910Z,18.28
2018-06-22T08:26:58.038Z,18.08
2018-06-22T08:29:27.133Z,17.98
2018-06-22T08:31:56.220Z,17.93
2018-06-22T08:34:25.409Z,18.34
2018-06-22T08:36:55.305Z,18.34
2018-06-22T08:39:24.392Z,18.09
2018-06-22T08:41:53.627Z,18.14
2018-06-22T08:44:22.689Z,18.44
2018-06-22T08:46:51.849Z,18.60
2018-06-22T08:49:20.961Z,18.97
2018-06-22T08:51:50.055Z,19.11
2018-06-22T08:54:19.165Z,18.88
2018-06-22T08:56:48.266Z,18.72
2018-06-22T08:59:17.349Z,18.55
2018-06-22T09:01:46.515Z,18.39
2018-06-22T09:04:15.618Z,18.46
2018-06-22T09:06:44.823Z,18.64
2018-06-22T09:09:13.913Z,18.69
2018-06-22T09:11:43.086Z,18.59
2018-06-22T09:14:12.190Z,18.55
2018-06-22T09:16:41.297Z,18.65
2018-06-22T09:19:10.727Z,18.57
2018-06-22T09:21:40.420Z,18.58
2018-06-22T09:24:09.503Z,18.55
2018-06-22T09:26:38.653Z,18.31
2018-06-22T09:29:07.911Z,18.39
2018-06-22T09:31:37.075Z,18.29
2018-06-22T09:34:06.196Z,18.26
2018-06-22T09:36:35.258Z,18.33
2018-06-22T09:39:06.897Z,18.37
2018-06-22T09:41:36.051Z,18.08
2018-06-22T09:44:05.325Z,17.98
2018-06-22T09:46:34.434Z,18.01
2018-06-22T09:49:03.780Z,17.95
2018-06-22T09:51:32.877Z,17.91
2018-06-22T09:54:01.974Z,18.05
2018-06-22T09:56:31.134Z,18.19
2018-06-22T09:59:00.253Z,18.64
2018-06-22T10:01:29.375Z,19.11
2018-06-22T10:03:58.514Z,19.87
2018-06-22T10:06:27.700Z,20.35
2018-06-22T10:08:56.842Z,20.01
2018-06-22T10:11:26.007Z,19.82
2018-06-22T10:13:55.114Z,19.98
2018-06-22T10:16:24.237Z,20.13
2018-06-22T10:18:53.361Z,20.43
2018-06-22T10:21:22.545Z,20.66
2018-06-22T10:23:51.660Z,20.90
2018-06-22T10:26:20.872Z,20.96
2018-06-22T10:28:50.106Z,20.45
2018-06-22T10:31:19.221Z,19.87
2018-06-22T10:33:48.341Z,19.84
2018-06-22T10:36:17.436Z,20.15
2018-06-22T10:38:46.566Z,20.55
2018-06-22T10:41:15.848Z,20.98
2018-06-22T10:43:44.972Z,21.27
2018-06-22T10:46:14.202Z,21.53
2018-06-22T10:48:43.493Z,21.78
2018-06-22T10:51:12.750Z,21.79
2018-06-22T10:53:41.912Z,21.27
2018-06-22T10:56:11.174Z,21.13
2018-06-22T10:58:40.409Z,21.32
2018-06-22T11:01:09.517Z,21.45
2018-06-22T11:03:38.661Z,21.72
2018-06-22T11:06:07.771Z,21.24
2018-06-22T11:08:36.904Z,21.16
2018-06-22T11:11:06.377Z,20.76
2018-06-22T11:13:35.594Z,20.39
2018-06-22T11:16:04.733Z,20.55
2018-06-22T11:18:33.851Z,20.53
2018-06-22T11:21:02.949Z,20.54
2018-06-22T11:23:32.049Z,20.46
2018-06-22T11:26:01.249Z,20.46
2018-06-22T11:28:30.355Z,20.10
2018-06-22T11:30:59.433Z,19.84
2018-06-22T11:33:28.672Z,19.57
2018-06-22T11:35:57.749Z,19.41
2018-06-22T11:38:26.898Z,19.33
2018-06-22T11:40:56.053Z,19.21
2018-06-22T11:43:25.242Z,19.20
2018-06-22T11:45:54.362Z,19.11
2018-06-22T11:48:23.481Z,18.99
2018-06-22T11:50:52.581Z,19.02
2018-06-22T11:53:21.697Z,18.92
2018-06-22T11:55:50.832Z,18.90
2018-06-22T11:58:19.964Z,18.83
2018-06-22T12:00:49.061Z,18.91
2018-06-22T12:03:18.179Z,18.75
2018-06-22T12:05:47.298Z,18.76
2018-06-22T12:08:16.416Z,18.66
2018-06-22T12:10:45.540Z,18.87
2018-06-22T12:13:14.717Z,18.75
2018-06-22T12:15:43.823Z,18.71
2018-06-22T12:18:12.988Z,18.64
2018-06-22T12:20:42.070Z,18.62
2018-06-22T12:23:11.422Z,18.48
2018-06-22T12:25:40.568Z,18.46
2018-06-22T12:28:09.702Z,18.38
2018-06-22T12:30:38.881Z,18.34
2018-06-22T12:33:08.202Z,18.49
2018-06-22T12:35:37.448Z,18.55
2018-06-22T12:38:06.668Z,18.57
2018-06-22T12:40:36.116Z,18.53
2018-06-22T12:43:05.584Z,18.47
2018-06-22T12:45:34.777Z,18.30
2018-06-22T12:48:04.012Z,18.36
2018-06-22T12:50:34.319Z,18.34
2018-06-22T12:53:03.486Z,18.46
2018-06-22T12:55:32.756Z,18.54
2018-06-22T12:58:01.942Z,18.65
2018-06-22T13:00:31.049Z,18.75
2018-06-22T13:03:00.276Z,18.76
2018-06-22T13:05:29.397Z,18.65
2018-06-22T13:07:58.569Z,18.56
2018-06-22T13:10:27.735Z,18.53
2018-06-22T13:12:56.862Z,18.57
2018-06-22T13:15:25.974Z,18.60
2018-06-22T13:17:55.094Z,18.60
2018-06-22T13:20:25.785Z,18.67
2018-06-22T13:22:54.880Z,18.63
2018-06-22T13:25:24.113Z,18.63
2018-06-22T13:27:53.240Z,18.58
2018-06-22T13:30:22.488Z,18.60
2018-06-22T13:32:51.597Z,18.67
2018-06-22T13:35:20.715Z,18.66
2018-06-22T13:37:49.830Z,18.84
2018-06-22T13:40:18.996Z,18.75
2018-06-22T13:42:48.188Z,18.66
2018-06-22T13:45:17.329Z,18.62
2018-06-22T13:47:46.617Z,18.60
2018-06-22T13:50:15.782Z,18.45
2018-06-22T13:52:44.816Z,18.49
2018-06-22T13:55:14.037Z,18.61
2018-06-22T13:57:43.173Z,18.83
2018-06-22T14:00:12.336Z,18.89
2018-06-22T14:02:41.505Z,18.98
2018-06-22T14:05:16.820Z,19.10
2018-06-22T14:07:45.980Z,19.27
2018-06-22T14:10:15.338Z,19.55
2018-06-22T14:12:44.455Z,19.51
2018-06-22T14:15:13.704Z,19.56
2018-06-22T14:17:42.794Z,19.41
2018-06-22T14:20:11.933Z,19.21
2018-06-22T14:22:41.109Z,18.89
2018-06-22T14:25:10.217Z,18.68
2018-06-22T14:27:39.352Z,18.39
2018-06-22T14:30:08.569Z,18.09
2018-06-22T14:32:37.829Z,17.91
2018-06-22T14:35:07.140Z,17.61
2018-06-22T14:37:36.265Z,17.56
2018-06-22T14:40:06.390Z,17.22
2018-06-22T14:42:35.572Z,17.06
2018-06-22T14:45:04.800Z,16.94
2018-06-22T14:47:33.959Z,16.75
2018-06-22T14:50:03.141Z,16.76
2018-06-22T14:52:32.251Z,16.85
2018-06-22T14:55:06.783Z,16.76
2018-06-22T14:57:41.052Z,16.78
2018-06-22T15:00:15.413Z,16.85
2018-06-22T15:02:49.757Z,16.89
2018-06-22T15:05:24.043Z,16.82
2018-06-22T15:07:56.133Z,16.77
2018-06-22T15:10:25.441Z,16.68
2018-06-22T15:12:54.553Z,16.61
2018-06-22T15:15:23.778Z,16.42
2018-06-22T15:17:53.952Z,16.19
2018-06-22T15:20:24.331Z,16.03
2018-06-22T15:22:53.549Z,15.84
2018-06-22T15:25:22.661Z,15.73
2018-06-22T15:27:52.573Z,15.75
2018-06-22T15:30:21.680Z,15.82
2018-06-22T15:32:50.813Z,15.99
2018-06-22T15:35:25.099Z,16.14
2018-06-22T15:37:59.427Z,16.45
2018-06-22T15:40:33.726Z,16.83
2018-06-22T15:43:08.212Z,17.03
2018-06-22T15:45:42.684Z,17.16
2018-06-22T15:48:17.034Z,17.17
2018-06-22T15:50:51.177Z,17.37
2018-06-22T15:53:25.512Z,17.42
2018-06-22T15:55:58.837Z,17.46
2018-06-22T15:58:28.025Z,17.43
2018-06-22T16:00:57.192Z,17.40
2018-06-22T16:03:31.631Z,17.20
2018-06-22T16:06:00.810Z,17.29
2018-06-22T16:08:29.984Z,17.14
2018-06-22T16:10:59.133Z,16.90
2018-06-22T16:13:28.332Z,16.72
2018-06-22T16:16:02.616Z,16.54
2018-06-22T16:18:43.258Z,16.43
2018-06-22T16:21:17.621Z,16.43
2018-06-22T16:23:51.916Z,16.30
2018-06-22T16:26:26.229Z,16.38
2018-06-22T16:28:55.291Z,16.43
2018-06-22T16:31:24.384Z,16.45
2018-06-22T16:33:57.351Z,16.52
2018-06-22T16:36:27.757Z,16.48
2018-06-22T16:38:57.269Z,16.46
2018-06-22T16:41:26.461Z,16.35
2018-06-22T16:43:55.541Z,16.32
2018-06-22T16:46:24.687Z,16.40
2018-06-22T16:48:53.770Z,16.18
2018-06-22T16:51:22.906Z,15.77
2018-06-22T16:53:52.034Z,15.30
2018-06-22T16:56:21.180Z,15.04
2018-06-22T16:58:50.345Z,14.95
2018-06-22T17:01:19.461Z,14.84
2018-06-22T17:03:48.593Z,14.66
2018-06-22T17:06:17.696Z,14.53
2018-06-22T17:08:52.077Z,14.40
2018-06-22T17:11:26.366Z,14.49
2018-06-22T17:14:00.773Z,14.56
2018-06-22T17:16:35.230Z,14.56
2018-06-22T17:19:04.445Z,14.63
2018-06-22T17:21:33.513Z,14.74
2018-06-22T17:24:02.615Z,14.55
2018-06-22T17:26:31.762Z,14.38
2018-06-22T17:29:00.892Z,14.33
2018-06-22T17:31:30.003Z,14.22
2018-06-22T17:33:59.142Z,14.20
2018-06-22T17:36:28.251Z,14.34
2018-06-22T17:38:57.349Z,14.44
2018-06-22T17:41:26.521Z,14.53
2018-06-22T17:43:55.595Z,14.55
2018-06-22T17:46:24.765Z,14.58
2018-06-22T17:48:53.905Z,14.52
2018-06-22T17:51:23.149Z,14.63
2018-06-22T17:53:52.242Z,14.61
2018-06-22T17:56:26.593Z,14.62
2018-06-22T17:59:00.990Z,14.59
2018-06-22T18:01:35.257Z,14.50
2018-06-22T18:04:09.674Z,14.59
2018-06-22T18:06:44.086Z,14.47
2018-06-22T18:09:18.424Z,14.44
2018-06-22T18:11:52.982Z,14.36
2018-06-22T18:14:22.126Z,14.31
2018-06-22T18:16:51.253Z,14.30
2018-06-22T18:19:20.362Z,14.15
2018-06-22T18:21:49.545Z,14.05
2018-06-22T18:24:18.706Z,13.99
2018-06-22T18:26:47.857Z,13.88
2018-06-22T18:29:17.010Z,13.68
2018-06-22T18:31:46.137Z,13.57
2018-06-22T18:34:15.264Z,13.45
2018-06-22T18:36:44.432Z,13.34
2018-06-22T18:39:13.730Z,13.26
2018-06-22T18:41:42.846Z,13.17
2018-06-22T18:44:16.898Z,13.09
2018-06-22T18:46:46.590Z,13.20
2018-06-22T18:49:15.658Z,13.03
2018-06-22T18:51:44.783Z,12.98
2018-06-22T18:54:19.166Z,12.81
2018-06-22T18:56:53.691Z,12.72
2018-06-22T18:59:28.070Z,12.73
2018-06-22T19:02:02.322Z,12.61
2018-06-22T19:04:31.585Z,12.58
2018-06-22T19:07:00.765Z,12.55
2018-06-22T19:09:29.851Z,12.56
2018-06-22T19:11:58.982Z,12.56
2018-06-22T19:14:28.157Z,12.54
2018-06-22T19:16:57.255Z,12.52
2018-06-22T19:19:26.389Z,12.54
2018-06-22T19:21:55.496Z,12.48
2018-06-22T19:24:24.618Z,12.45
2018-06-22T19:26:53.737Z,12.44
2018-06-22T19:29:22.858Z,12.43
2018-06-22T19:31:52.037Z,12.42
2018-06-22T19:34:26.358Z,12.42
2018-06-22T19:36:55.502Z,12.44
2018-06-22T19:39:24.597Z,12.37
2018-06-22T19:41:53.733Z,12.34
2018-06-22T19:44:28.029Z,12.30
2018-06-22T19:47:02.457Z,12.27
2018-06-22T19:49:36.823Z,12.22
2018-06-22T19:52:11.159Z,12.19
2018-06-22T19:54:40.256Z,12.18
2018-06-22T19:57:09.489Z,12.16
2018-06-22T19:59:38.649Z,12.21
2018-06-22T20:02:07.790Z,12.12
2018-06-22T20:04:36.956Z,12.09
2018-06-22T20:07:06.418Z,12.07
2018-06-22T20:09:35.612Z,12.04
2018-06-22T20:12:04.718Z,12.08
2018-06-22T20:14:33.910Z,12.03
2018-06-22T20:17:03.041Z,11.96
2018-06-22T20:19:32.177Z,11.96
2018-06-22T20:22:01.317Z,11.96
2018-06-22T20:24:35.675Z,11.93
2018-06-22T20:27:04.929Z,11.99
2018-06-22T20:29:34.057Z,11.97
2018-06-22T20:32:07.328Z,12.08
2018-06-22T20:34:41.509Z,12.03
2018-06-22T20:37:16.700Z,11.92
2018-06-22T20:39:50.908Z,12.02
2018-06-22T20:42:25.281Z,12.04
2018-06-22T20:44:59.714Z,12.01
2018-06-22T20:47:34.017Z,12.10
2018-06-22T20:50:08.471Z,12.07
2018-06-22T20:52:37.600Z,12.09
2018-06-22T20:55:06.949Z,12.11
2018-06-22T20:57:36.054Z,12.10
2018-06-22T21:00:05.442Z,12.08
2018-06-22T21:02:34.608Z,12.06
2018-06-22T21:05:03.765Z,12.09
2018-06-22T21:07:32.957Z,12.19
2018-06-22T21:10:02.105Z,12.28
2018-06-22T21:12:40.417Z,12.24
2018-06-22T21:15:00.626Z,12.24
2018-06-22T21:17:29.788Z,12.29
2018-06-22T21:19:58.927Z,12.33
2018-06-22T21:22:28.038Z,12.34
2018-06-22T21:24:57.205Z,12.30
2018-06-22T21:27:31.555Z,12.30
2018-06-22T21:30:05.953Z,12.28
2018-06-22T21:32:40.417Z,12.37
2018-06-22T21:35:14.814Z,12.46
2018-06-22T21:37:49.129Z,12.41
2018-06-22T21:40:18.302Z,12.48
2018-06-22T21:42:47.842Z,12.58
2018-06-22T21:45:17.013Z,12.60
2018-06-22T21:47:46.237Z,12.56
2018-06-22T21:50:15.425Z,12.53
2018-06-22T21:52:44.551Z,12.51
2018-06-22T21:55:13.690Z,12.51
2018-06-22T21:57:42.910Z,12.55
2018-06-22T22:00:14.245Z,12.51
2018-06-22T22:02:43.353Z,12.52
2018-06-22T22:05:12.514Z,12.57
2018-06-22T22:07:41.739Z,12.53
2018-06-22T22:10:10.980Z,12.49
2018-06-22T22:12:40.061Z,12.52
2018-06-22T22:15:09.320Z,12.49
2018-06-22T22:17:38.420Z,12.52
2018-06-22T22:20:07.596Z,12.54
2018-06-22T22:22:36.908Z,12.55
2018-06-22T22:25:06.329Z,12.47
2018-06-22T22:27:35.464Z,12.53
2018-06-22T22:30:05.202Z,12.46
2018-06-22T22:32:34.479Z,12.45
2018-06-22T22:35:03.740Z,12.44
2018-06-22T22:37:32.973Z,12.43
2018-06-22T22:40:02.085Z,12.43
2018-06-22T22:42:31.229Z,12.52
2018-06-22T22:45:00.449Z,12.48
2018-06-22T22:47:29.716Z,12.44
2018-06-22T22:49:58.852Z,12.49
2018-06-22T22:52:28.041Z,12.44
2018-06-22T22:54:58.041Z,12.38
2018-06-22T22:57:27.162Z,12.41
2018-06-22T22:59:56.350Z,12.52
2018-06-22T23:02:25.501Z,12.42
2018-06-22T23:04:54.717Z,12.38
2018-06-22T23:07:24.005Z,12.31
2018-06-22T23:09:53.246Z,12.27
2018-06-22T23:12:22.442Z,12.17
2018-06-22T23:14:51.660Z,12.11
2018-06-22T23:17:20.819Z,12.07
2018-06-22T23:19:49.989Z,12.02
2018-06-22T23:22:24.688Z,12.00
2018-06-22T23:24:54.247Z,11.96
2018-06-22T23:27:23.365Z,11.91
2018-06-22T23:29:52.523Z,11.82
2018-06-22T23:32:21.639Z,11.82
2018-06-22T23:34:50.768Z,11.76
2018-06-22T23:37:19.917Z,11.74
2018-06-22T23:39:49.045Z,11.72
2018-06-22T23:42:18.225Z,11.71
2018-06-22T23:44:47.368Z,11.72
2018-06-22T23:47:16.513Z,11.67
2018-06-22T23:49:45.739Z,11.64
2018-06-22T23:52:14.903Z,11.65
2018-06-22T23:54:44.034Z,11.64
2018-06-22T23:57:13.224Z,11.66
2018-06-22T23:59:42.384Z,11.68
